Time;durP1;ratioP1;P1;durP2;ratioP2;P2;SDS_P1;SDS_P2;PMS_P1;PMS_P2;Temp;Humidity;BMP_temperature;BMP_pressure;BME280_temperature;BME280_humidity;BME280_pressure;Samples;Min_cycle;Max_cycle;Signal;HPM_P1;HPM_P2
2023/03/11 00:00:15;;;;;;;3.22;0.60;;;;;;;14.24;37.06;98775.59;4939655;29;20490;-85
2023/03/11 00:02:40;;;;;;;0.93;0.50;;;;;;;14.22;37.44;98772.38;4941190;29;20103;-84
2023/03/11 00:05:07;;;;;;;1.20;0.60;;;;;;;14.18;37.50;98776.50;4939823;29;20416;-88
2023/03/11 00:07:33;;;;;;;6.28;0.77;;;;;;;14.03;37.84;98768.94;4938018;29;20380;-86
2023/03/11 00:09:58;;;;;;;2.25;0.68;;;;;;;13.93;38.03;98758.81;4920119;29;20045;-84
2023/03/11 00:12:24;;;;;;;3.45;0.77;;;;;;;13.83;38.51;98747.91;4936518;29;20483;-86
2023/03/11 00:14:49;;;;;;;1.85;0.85;;;;;;;13.71;38.31;98741.72;4937140;29;20455;-89
2023/03/11 00:17:15;;;;;;;3.90;0.73;;;;;;;13.65;38.62;98741.81;4937362;29;20071;-87
2023/03/11 00:19:40;;;;;;;5.78;1.02;;;;;;;13.69;38.91;98751.78;4937000;29;20123;-84
2023/03/11 00:22:06;;;;;;;1.90;0.70;;;;;;;13.61;39.29;98748.63;4938172;29;20027;-83
2023/03/11 00:24:32;;;;;;;2.33;0.70;;;;;;;13.52;39.34;98742.81;4937171;29;20551;-85
2023/03/11 00:26:58;;;;;;;1.45;0.80;;;;;;;13.42;40.29;98742.53;4937925;29;20039;-85
2023/03/11 00:29:23;;;;;;;2.03;1.10;;;;;;;13.36;40.48;98732.75;4922536;29;20181;-85
2023/03/11 00:31:49;;;;;;;5.00;0.80;;;;;;;13.39;40.67;98746.41;4937025;29;20040;-86
2023/03/11 00:34:14;;;;;;;2.00;0.80;;;;;;;13.30;40.76;98742.44;4938511;29;20046;-87
2023/03/11 00:36:40;;;;;;;11.02;1.05;;;;;;;13.33;40.96;98735.84;4938668;29;20054;-85
2023/03/11 00:39:06;;;;;;;5.47;0.90;;;;;;;13.29;41.60;98748.00;4938266;29;20480;-86
2023/03/11 00:41:32;;;;;;;3.55;0.90;;;;;;;13.19;41.86;98750.38;4938306;29;20494;-85
2023/03/11 00:43:58;;;;;;;3.25;0.80;;;;;;;13.09;42.21;98761.50;4940359;29;20057;-82
2023/03/11 00:46:24;;;;;;;2.25;0.75;;;;;;;13.08;42.17;98764.38;4942411;29;20078;-86
2023/03/11 00:48:50;;;;;;;1.30;0.77;;;;;;;12.96;42.62;98770.41;4931362;29;20040;-85
2023/03/11 00:51:16;;;;;;;2.08;0.90;;;;;;;12.99;42.77;98758.53;4953670;29;20044;-80
2023/03/11 00:53:43;;;;;;;1.83;0.90;;;;;;;12.97;42.80;98768.56;4955424;29;20087;-81
2023/03/11 00:56:13;;;;;;;0.85;0.70;;;;;;;12.92;42.84;98771.09;4925303;29;20483;-84
2023/03/11 00:58:41;;;;;;;1.73;0.80;;;;;;;12.88;42.94;98764.56;4925264;29;20046;-85
2023/03/11 01:01:18;;;;;;;2.05;0.70;;;;;;;12.92;43.01;98750.63;4942803;29;20410;-82
2023/03/11 01:03:44;;;;;;;2.78;0.98;;;;;;;12.89;43.23;98747.59;4925455;29;20051;-83
2023/03/11 01:06:11;;;;;;;2.22;0.60;;;;;;;12.90;43.17;98743.88;4941290;29;20039;-83
2023/03/11 01:08:37;;;;;;;9.20;1.05;;;;;;;12.90;43.17;98739.38;4941819;29;20047;-82
2023/03/11 01:11:04;;;;;;;3.25;0.70;;;;;;;12.87;43.29;98737.16;4940724;29;20122;-84
2023/03/11 01:13:30;;;;;;;2.13;0.90;;;;;;;12.81;43.60;98732.72;4922754;29;20027;-85
2023/03/11 01:15:56;;;;;;;2.03;0.80;;;;;;;12.81;43.87;98742.53;4940093;29;20041;-83
2023/03/11 01:18:22;;;;;;;1.02;0.60;;;;;;;12.75;44.44;98727.47;4939772;29;20170;-83
2023/03/11 01:20:48;;;;;;;6.40;0.70;;;;;;;12.72;44.64;98709.31;4940427;29;20488;-84
2023/03/11 01:23:14;;;;;;;2.28;0.60;;;;;;;12.74;44.75;98694.75;4939874;29;20119;-85
2023/03/11 01:25:39;;;;;;;1.50;0.70;;;;;;;12.74;44.64;98700.09;4922991;29;20123;-82
2023/03/11 01:28:07;;;;;;;1.88;0.80;;;;;;;12.75;44.95;98706.22;4938799;29;20122;-85
2023/03/11 01:30:34;;;;;;;4.53;0.77;;;;;;;12.79;44.69;98686.94;4922186;29;20124;-83
2023/03/11 01:33:01;;;;;;;1.92;0.70;;;;;;;12.79;44.65;98684.28;4925681;29;20043;-83
2023/03/11 01:35:28;;;;;;;2.15;0.98;;;;;;;12.77;44.55;98683.69;4937983;29;20059;-82
2023/03/11 01:37:54;;;;;;;1.85;0.82;;;;;;;12.86;44.32;98687.66;4936826;29;20091;-80
2023/03/11 01:40:34;;;;;;;3.00;0.90;;;;;;;12.81;44.70;98678.75;4920870;29;20071;-80
2023/03/11 01:43:06;;;;;;;2.90;1.00;;;;;;;12.74;44.96;98668.19;4920659;29;20034;-83
2023/03/11 01:45:38;;;;;;;1.52;0.70;;;;;;;12.71;45.32;98668.63;4920767;29;20036;-84
2023/03/11 01:48:06;;;;;;;;;;;;;;;12.69;45.73;98657.41;4918578;29;20046;-81
2023/03/11 01:50:39;;;;;;;1.50;0.70;;;;;;;12.62;45.88;98669.97;4920396;29;19915;-81
2023/03/11 01:53:05;;;;;;;2.55;1.08;;;;;;;12.58;46.35;98660.78;4937780;29;20498;-80
2023/03/11 01:55:33;;;;;;;0.95;0.60;;;;;;;12.53;46.29;98657.97;4920791;29;20044;-82
2023/03/11 01:58:06;;;;;;;5.70;0.80;;;;;;;12.51;46.61;98654.72;4938739;29;20499;-83
2023/03/11 02:00:32;;;;;;;2.10;0.70;;;;;;;12.48;46.93;98649.03;4937045;29;20507;-83
2023/03/11 02:03:01;;;;;;;1.80;0.90;;;;;;;12.48;47.04;98675.59;4938686;29;20446;-81
2023/03/11 02:05:28;;;;;;;1.73;0.70;;;;;;;12.52;47.51;98668.84;4921703;29;20042;-82
2023/03/11 02:07:54;;;;;;;3.97;0.93;;;;;;;12.58;46.88;98658.13;4924372;29;20103;-83
2023/03/11 02:10:23;;;;;;;2.35;0.80;;;;;;;12.54;47.17;98650.81;4929339;29;20032;-83
2023/03/11 02:12:50;;;;;;;3.05;0.90;;;;;;;12.48;46.96;98636.56;4942681;29;20039;-83
2023/03/11 02:15:23;;;;;;;1.35;0.50;;;;;;;12.58;47.04;98620.13;4938655;29;20052;-81
2023/03/11 02:17:49;;;;;;;0.90;0.63;;;;;;;12.63;46.90;98629.03;4937328;29;20043;-83
2023/03/11 02:20:54;;;;;;;1.35;0.80;;;;;;;12.66;46.90;98631.25;4921108;29;20403;-81
2023/03/11 02:23:25;;;;;;;1.55;0.80;;;;;;;12.62;47.30;98619.47;4880091;29;20120;-79
2023/03/11 02:26:07;;;;;;;2.50;1.00;;;;;;;12.52;47.56;98629.78;4879264;29;20141;-83
2023/03/11 02:28:34;;;;;;;0.88;0.60;;;;;;;12.58;47.70;98626.25;4878979;29;20045;-83
2023/03/11 02:31:01;;;;;;;3.50;0.85;;;;;;;12.53;48.04;98615.44;4879351;29;20041;-81
2023/03/11 02:33:31;;;;;;;6.78;0.80;;;;;;;12.42;48.37;98621.53;4879268;29;20064;-85
2023/03/11 02:35:56;;;;;;;1.67;0.70;;;;;;;12.31;48.97;98619.56;4879080;29;20142;-83
2023/03/11 02:38:22;;;;;;;1.80;0.63;;;;;;;12.19;49.25;98622.16;4879574;29;20119;-82
2023/03/11 02:41:14;;;;;;;2.13;0.80;;;;;;;12.26;49.36;98603.50;4879378;29;20045;-81
2023/03/11 02:43:45;;;;;;;3.17;0.88;;;;;;;12.29;48.80;98609.19;4876951;29;20152;-84
2023/03/11 02:46:13;;;;;;;2.15;0.90;;;;;;;12.31;48.99;98601.81;4879840;29;20121;-86
2023/03/11 02:48:40;;;;;;;1.70;0.70;;;;;;;12.31;48.72;98607.09;4880168;29;20045;-83
2023/03/11 02:51:06;;;;;;;1.33;0.47;;;;;;;12.37;48.79;98600.91;4879283;29;20132;-82
2023/03/11 02:53:36;;;;;;;1.83;0.73;;;;;;;12.38;48.66;98617.66;4893070;29;20134;-82
2023/03/11 02:56:02;;;;;;;8.13;1.02;;;;;;;12.39;48.65;98627.28;4937795;29;20480;-84
2023/03/11 02:58:28;;;;;;;1.27;0.60;;;;;;;12.34;48.75;98629.75;4920942;29;20078;-82
2023/03/11 03:00:53;;;;;;;2.67;0.65;;;;;;;12.32;49.05;98623.88;4920678;29;20311;-84
2023/03/11 03:03:19;;;;;;;0.90;0.60;;;;;;;12.34;48.96;98624.44;4920562;29;20012;-82
2023/03/11 03:05:45;;;;;;;1.30;0.70;;;;;;;12.32;49.22;98621.22;4920368;29;20042;-83
2023/03/11 03:08:12;;;;;;;0.90;0.68;;;;;;;12.33;49.19;98638.75;4906337;29;20031;-83
2023/03/11 03:10:37;;;;;;;0.90;0.50;;;;;;;12.30;49.29;98641.84;4937008;29;20055;-82
2023/03/11 03:13:03;;;;;;;1.13;0.60;;;;;;;12.29;49.56;98632.28;4920241;29;20036;-83
2023/03/11 03:15:29;;;;;;;0.68;0.60;;;;;;;12.30;49.52;98628.56;4920098;29;20044;-85
2023/03/11 03:17:55;;;;;;;1.45;0.60;;;;;;;12.38;49.23;98638.91;4936569;29;20466;-86
2023/03/11 03:20:21;;;;;;;1.45;0.50;;;;;;;12.34;49.34;98640.38;4920913;29;20053;-82
2023/03/11 03:22:50;;;;;;;0.98;0.73;;;;;;;12.36;49.46;98638.34;4936707;29;20063;-85
2023/03/11 03:25:18;;;;;;;1.48;0.63;;;;;;;12.38;49.52;98636.25;4936793;29;20106;-85
2023/03/11 03:27:44;;;;;;;0.50;0.40;;;;;;;12.46;48.96;98643.97;4937681;29;20035;-84
2023/03/11 03:30:10;;;;;;;0.60;0.60;;;;;;;12.52;48.67;98637.75;4937469;29;20036;-86
2023/03/11 03:32:37;;;;;;;2.85;0.60;;;;;;;12.56;48.38;98620.31;4920373;29;20047;-86
2023/03/11 03:35:04;;;;;;;3.25;0.30;;;;;;;12.64;48.16;98625.34;4920496;29;20040;-86
2023/03/11 03:37:51;;;;;;;0.57;0.50;;;;;;;12.74;48.02;98620.34;4935672;29;20028;-86
2023/03/11 03:40:20;;;;;;;0.93;0.50;;;;;;;12.82;47.24;98604.09;4920609;29;20044;-84
2023/03/11 03:42:46;;;;;;;1.15;0.57;;;;;;;12.95;47.11;98597.81;4920514;29;20038;-85
2023/03/11 03:45:12;;;;;;;1.40;0.40;;;;;;;13.01;46.40;98593.44;4937015;29;20036;-86
2023/03/11 03:47:38;;;;;;;1.20;0.40;;;;;;;13.09;46.01;98590.50;4919898;29;20036;-83
2023/03/11 03:50:06;;;;;;;1.80;0.73;;;;;;;13.23;45.68;98583.94;4919567;29;20179;-85
2023/03/11 03:52:32;;;;;;;2.38;0.40;;;;;;;13.36;45.18;98584.56;4919779;29;20523;-85
2023/03/11 03:54:57;;;;;;;0.77;0.50;;;;;;;13.44;45.22;98610.88;4919822;29;20067;-85
2023/03/11 03:57:23;;;;;;;1.88;0.60;;;;;;;13.63;45.13;98624.91;4937331;29;20043;-86
2023/03/11 03:59:48;;;;;;;1.33;0.45;;;;;;;13.56;45.71;98628.69;4936116;29;20479;-86
2023/03/11 04:02:14;;;;;;;1.77;0.47;;;;;;;13.52;45.95;98628.38;4905895;29;20031;-86
2023/03/11 04:04:39;;;;;;;5.13;0.63;;;;;;;13.61;45.69;98627.00;4936722;29;20471;-84
2023/03/11 04:07:05;;;;;;;1.08;0.40;;;;;;;13.46;45.29;98613.28;4920888;29;20042;-85
2023/03/11 04:09:33;;;;;;;3.15;0.70;;;;;;;13.51;44.90;98610.75;4921183;29;20058;-86
2023/03/11 04:11:59;;;;;;;0.88;0.50;;;;;;;13.50;44.99;98603.81;4923395;29;20051;-86
2023/03/11 04:14:25;;;;;;;4.65;0.85;;;;;;;13.46;45.03;98602.63;4941021;29;20047;-85
2023/03/11 04:16:56;;;;;;;1.40;0.40;;;;;;;13.40;45.28;98604.38;4925706;29;20040;-84
2023/03/11 04:19:22;;;;;;;1.52;0.57;;;;;;;13.49;45.39;98598.72;4940484;29;20107;-86
2023/03/11 04:21:49;;;;;;;3.92;0.57;;;;;;;13.46;45.65;98597.31;4925267;29;20075;-86
2023/03/11 04:24:15;;;;;;;1.98;0.40;;;;;;;13.44;46.00;98615.38;4925039;29;20078;-83
2023/03/11 04:26:41;;;;;;;2.55;0.68;;;;;;;13.56;46.00;98618.88;4924618;29;20035;-84
2023/03/11 04:29:11;;;;;;;3.90;0.30;;;;;;;13.67;45.74;98631.41;4922244;29;20082;-85
2023/03/11 04:31:41;;;;;;;1.52;0.65;;;;;;;13.64;45.66;98626.53;4937971;29;20138;-82
2023/03/11 04:34:07;;;;;;;0.65;0.50;;;;;;;13.62;46.07;98631.25;4937989;29;20070;-84
2023/03/11 04:36:34;;;;;;;0.93;0.50;;;;;;;13.43;46.21;98622.53;4939081;29;20031;-84
2023/03/11 04:39:00;;;;;;;3.08;0.50;;;;;;;13.41;46.34;98626.47;4959380;29;20035;-82
2023/03/11 04:41:29;;;;;;;0.40;0.40;;;;;;;13.34;46.35;98618.59;4956780;29;20060;-83
2023/03/11 04:43:54;;;;;;;0.68;0.55;;;;;;;13.28;46.51;98632.78;4957800;29;20032;-86
2023/03/11 04:46:20;;;;;;;0.35;0.35;;;;;;;13.31;46.42;98636.84;4955220;29;20051;-83
2023/03/11 04:48:45;;;;;;;3.92;0.60;;;;;;;13.49;46.14;98636.78;4942664;29;20043;-83
2023/03/11 04:51:12;;;;;;;2.13;0.60;;;;;;;13.51;46.60;98629.41;4941797;29;20055;-83
2023/03/11 04:53:37;;;;;;;1.05;0.60;;;;;;;13.40;47.16;98624.84;4957126;29;20060;-86
2023/03/11 04:56:03;;;;;;;1.52;0.77;;;;;;;13.40;47.18;98619.50;4922861;29;20475;-84
2023/03/11 04:58:30;;;;;;;3.55;1.30;;;;;;;13.36;47.12;98608.50;4918858;29;20051;-83
2023/03/11 05:00:55;;;;;;;1.60;0.80;;;;;;;13.01;48.22;98607.53;4919836;29;20063;-83
2023/03/11 05:03:21;;;;;;;1.17;0.65;;;;;;;12.92;48.60;98593.75;4934196;29;20038;-84
2023/03/11 05:05:47;;;;;;;1.17;0.75;;;;;;;12.87;49.05;98595.44;4932377;29;20036;-87
2023/03/11 05:08:12;;;;;;;0.82;0.50;;;;;;;13.01;48.60;98607.53;4934521;29;20038;-88
2023/03/11 05:10:40;;;;;;;1.73;1.10;;;;;;;13.12;48.60;98603.34;4919474;29;20032;-88
2023/03/11 05:13:06;;;;;;;2.75;1.33;;;;;;;13.20;48.79;98595.03;4919501;29;20067;-86
2023/03/11 05:15:38;;;;;;;0.70;0.60;;;;;;;13.12;49.55;98587.38;4919220;29;20042;-88
2023/03/11 05:18:05;;;;;;;4.07;0.43;;;;;;;12.88;50.14;98592.56;4925806;29;20048;-85
2023/03/11 05:20:32;;;;;;;1.95;0.45;;;;;;;12.81;50.75;98583.84;4947494;29;20040;-85
2023/03/11 05:23:04;;;;;;;1.88;0.40;;;;;;;12.77;50.74;98587.19;4924820;29;20048;-85
2023/03/11 05:25:34;;;;;;;0.95;0.50;;;;;;;12.76;50.43;98561.66;4926274;29;20119;-84
2023/03/11 05:28:00;;;;;;;0.98;0.57;;;;;;;12.73;50.32;98552.25;4946021;29;20031;-81
2023/03/11 05:30:26;;;;;;;0.52;0.35;;;;;;;12.87;49.85;98535.09;4928641;29;20130;-85
2023/03/11 05:32:53;;;;;;;0.85;0.60;;;;;;;12.76;50.29;98525.22;4945133;29;20043;-83
2023/03/11 05:35:19;;;;;;;0.55;0.40;;;;;;;12.78;50.15;98548.94;4920941;29;20028;-87
2023/03/11 05:37:48;;;;;;;0.57;0.43;;;;;;;12.84;50.15;98562.13;4935861;29;20074;-89
2023/03/11 05:40:15;;;;;;;4.07;0.80;;;;;;;12.93;49.74;98559.97;4936316;29;20340;-86
2023/03/11 05:42:41;;;;;;;3.50;0.70;;;;;;;13.06;49.10;98575.75;4921758;29;20538;-89
2023/03/11 05:45:08;;;;;;;0.98;0.63;;;;;;;13.08;48.93;98600.28;4939410;29;20387;-88
2023/03/11 05:47:35;;;;;;;0.95;0.77;;;;;;;12.78;49.75;98632.16;4922494;29;20143;-88
2023/03/11 05:50:01;;;;;;;0.80;0.60;;;;;;;12.66;50.20;98649.84;4906494;29;20551;-88
2023/03/11 05:52:29;;;;;;;1.95;0.50;;;;;;;12.57;50.37;98661.81;4922229;29;20562;-85
2023/03/11 05:54:55;;;;;;;0.73;0.70;;;;;;;12.56;50.65;98662.84;4920300;29;20040;-86
2023/03/11 05:57:24;;;;;;;1.98;0.50;;;;;;;12.52;50.77;98664.34;4920419;29;20284;-86
2023/03/11 05:59:50;;;;;;;0.93;0.60;;;;;;;12.49;51.02;98664.78;4920026;29;20488;-84
2023/03/11 06:02:16;;;;;;;5.00;0.80;;;;;;;12.47;50.98;98672.13;4920221;29;20089;-87
2023/03/11 06:04:42;;;;;;;1.90;1.00;;;;;;;12.51;51.39;98668.00;4922391;29;20126;-88
2023/03/11 06:07:11;;;;;;;3.13;1.00;;;;;;;12.77;51.33;98656.28;4922789;29;20027;-86
2023/03/11 06:09:37;;;;;;;1.52;0.40;;;;;;;13.14;51.14;98627.84;4940206;29;20032;-87
2023/03/11 06:12:07;;;;;;;0.63;0.50;;;;;;;13.73;48.67;98598.53;4923087;29;20536;-89
2023/03/11 06:14:46;;;;;;;3.25;0.47;;;;;;;13.57;49.78;98566.44;4911041;29;20163;-89
2023/03/11 06:17:11;;;;;;;1.15;0.60;;;;;;;13.51;50.07;98546.91;4925775;29;20067;-87
2023/03/11 06:19:37;;;;;;;4.72;1.25;;;;;;;13.14;50.82;98529.44;4942033;29;20040;-86
2023/03/11 06:22:02;;;;;;;1.50;1.10;;;;;;;13.01;52.63;98519.78;4922482;29;20044;-87
2023/03/11 06:24:28;;;;;;;1.88;1.00;;;;;;;13.07;51.81;98549.97;4922607;29;20059;-85
2023/03/11 06:26:54;;;;;;;3.75;1.48;;;;;;;13.15;51.06;98582.44;4939087;29;20051;-89
2023/03/11 06:29:23;;;;;;;3.17;1.33;;;;;;;13.19;51.28;98606.72;4940366;29;20040;-85
2023/03/11 06:31:49;;;;;;;3.40;1.83;;;;;;;13.20;50.98;98626.94;4922789;29;20473;-87
2023/03/11 06:34:16;;;;;;;7.28;1.23;;;;;;;13.31;50.54;98636.84;4939816;29;20079;-87
2023/03/11 06:36:44;;;;;;;5.63;0.95;;;;;;;13.49;50.24;98633.34;4921894;29;20403;-86
2023/03/11 06:39:14;;;;;;;1.08;0.57;;;;;;;13.27;50.21;98627.69;4922210;29;20039;-82
2023/03/11 06:41:41;;;;;;;3.70;1.20;;;;;;;13.48;49.75;98635.19;4923441;29;20076;-90
2023/03/11 06:44:11;;;;;;;2.03;1.08;;;;;;;13.24;50.31;98642.25;4938716;29;20501;-85
2023/03/11 06:46:38;;;;;;;3.15;0.70;;;;;;;13.25;50.42;98630.59;4942411;29;20047;-84
2023/03/11 06:49:03;;;;;;;1.58;0.80;;;;;;;13.13;51.03;98616.41;4925854;29;20036;-88
2023/03/11 06:51:30;;;;;;;3.42;1.20;;;;;;;13.13;51.50;98613.75;4939083;29;20094;-89
2023/03/11 06:53:56;;;;;;;2.15;0.80;;;;;;;13.43;51.11;98616.41;4921210;29;20044;-88
2023/03/11 06:56:28;;;;;;;0.73;0.70;;;;;;;14.69;47.96;98624.75;4925190;29;20510;-88
2023/03/11 06:58:59;;;;;;;3.80;0.60;;;;;;;16.39;43.62;98633.44;4922849;29;20035;-89
2023/03/11 07:01:29;;;;;;;4.22;0.68;;;;;;;16.13;42.12;98635.97;4945927;29;20424;-84
2023/03/11 07:03:56;;;;;;;5.18;0.80;;;;;;;17.42;40.37;98645.22;4924343;29;20130;-85
2023/03/11 07:06:25;;;;;;;1.90;0.75;;;;;;;17.51;39.77;98643.69;4925165;29;20491;-85
2023/03/11 07:08:56;;;;;;;1.88;0.63;;;;;;;18.64;37.85;98652.44;4938536;29;20411;-88
2023/03/11 07:11:27;;;;;;;5.00;0.60;;;;;;;19.10;35.45;98663.16;4921088;29;20039;-84
2023/03/11 07:13:58;;;;;;;1.90;0.70;;;;;;;18.83;36.43;98673.22;4938210;29;20479;-88
2023/03/11 07:16:28;;;;;;;2.63;0.80;;;;;;;19.30;35.90;98677.72;4922402;29;20499;-89
2023/03/11 07:19:08;;;;;;;4.10;0.50;;;;;;;19.59;35.40;98676.22;4936996;29;20737;-87
2023/03/11 07:21:33;;;;;;;3.67;0.40;;;;;;;19.57;34.91;98684.56;4938690;29;20198;-87
2023/03/11 07:24:01;;;;;;;4.97;0.60;;;;;;;19.52;34.57;98692.59;4920962;29;20126;-85
2023/03/11 07:26:29;;;;;;;3.72;1.00;;;;;;;19.43;35.04;98688.81;4937948;29;20043;-88
2023/03/11 07:28:56;;;;;;;4.35;0.68;;;;;;;18.45;36.80;98686.91;4940907;29;20495;-88
2023/03/11 07:31:33;;;;;;;1.83;0.40;;;;;;;18.76;36.29;98686.06;4945939;29;20122;-88
2023/03/11 07:34:01;;;;;;;3.35;0.77;;;;;;;18.54;36.94;98688.06;4953776;29;20040;-88
2023/03/11 07:36:27;;;;;;;7.20;0.68;;;;;;;18.30;36.94;98692.13;4947533;29;20032;-88
2023/03/11 07:38:58;;;;;;;1.90;0.88;;;;;;;18.34;37.06;98690.56;4955130;29;20054;-87
2023/03/11 07:41:27;;;;;;;1.67;0.70;;;;;;;18.12;37.94;98696.03;4956586;29;20039;-89
2023/03/11 07:43:55;;;;;;;5.93;0.75;;;;;;;18.22;37.50;98698.81;4955950;29;20107;-91
2023/03/11 07:46:21;;;;;;;1.27;0.70;;;;;;;17.62;38.40;98715.09;4954158;29;20095;-87
2023/03/11 07:48:49;;;;;;;5.55;0.80;;;;;;;18.20;38.27;98708.13;4953883;29;20051;-88
2023/03/11 07:51:23;;;;;;;2.95;0.93;;;;;;;19.17;36.78;98721.19;4953390;29;20043;-87
2023/03/11 07:53:50;;;;;;;2.22;0.75;;;;;;;19.07;36.96;98717.38;4950518;29;20031;-89
2023/03/11 07:56:18;;;;;;;2.13;0.73;;;;;;;19.25;36.86;98718.00;4950504;29;20042;-89
2023/03/11 07:58:46;;;;;;;2.72;0.90;;;;;;;19.32;36.56;98723.94;4952957;29;20020;-90
2023/03/11 08:01:15;;;;;;;3.97;0.90;;;;;;;19.86;36.05;98725.22;4952810;29;20467;-89
2023/03/11 08:03:42;;;;;;;2.70;0.73;;;;;;;19.86;35.33;98724.41;4950675;29;20040;-89
2023/03/11 08:06:31;;;;;;;1.95;0.80;;;;;;;20.42;34.52;98728.78;4943787;29;20016;-87
2023/03/11 08:08:58;;;;;;;2.90;0.88;;;;;;;21.31;33.25;98732.72;4948598;29;20031;-87
2023/03/11 08:11:24;;;;;;;3.78;0.93;;;;;;;22.48;31.26;98744.44;4950434;29;20407;-90
2023/03/11 08:13:53;;;;;;;2.53;0.63;;;;;;;22.12;30.81;98741.22;4923820;29;20043;-89
2023/03/11 08:16:21;;;;;;;2.97;0.77;;;;;;;22.30;31.55;98743.25;4923940;29;20129;-88
2023/03/11 08:18:48;;;;;;;9.73;1.13;;;;;;;23.01;29.84;98743.44;4947355;29;20031;-89
2023/03/11 08:21:17;;;;;;;3.90;0.77;;;;;;;22.79;30.66;98748.53;4937322;29;20044;-90
2023/03/11 08:23:44;;;;;;;1.92;0.60;;;;;;;23.40;29.79;98743.31;4942024;29;20051;-85
2023/03/11 08:26:16;;;;;;;5.68;1.00;;;;;;;23.03;30.09;98741.28;4927724;29;20054;-89
2023/03/11 08:28:46;;;;;;;3.80;0.85;;;;;;;21.65;31.90;98741.72;4942173;29;20063;-89
2023/03/11 08:31:17;;;;;;;4.70;0.88;;;;;;;21.63;31.59;98749.28;4947334;29;20040;-92
2023/03/11 08:33:51;;;;;;;2.83;0.93;;;;;;;21.25;32.25;98731.91;4925340;29;20091;-90
2023/03/11 08:36:19;;;;;;;2.08;0.70;;;;;;;20.85;32.75;98731.97;4931341;29;20047;-92
2023/03/11 08:38:45;;;;;;;2.70;0.70;;;;;;;21.67;31.67;98744.97;4942462;29;20032;-85
2023/03/11 08:41:12;;;;;;;1.95;0.55;;;;;;;21.77;31.74;98753.00;4927210;29;20079;-90
2023/03/11 08:43:41;;;;;;;3.75;0.70;;;;;;;22.69;30.46;98745.13;4944690;29;20036;-88
2023/03/11 11:26:32;;;;;;;0.20;0.10;;;;;;;26.15;23.18;98734.47;5048017;23;20046;-86
2023/03/11 11:29:18;;;;;;;0.10;0.10;;;;;;;27.91;21.23;98739.06;5005207;28;20039;-83
2023/03/11 11:31:47;;;;;;;0.65;0.20;;;;;;;28.94;20.33;98741.75;5013789;28;20036;-85
2023/03/11 11:53:54;;;;;;;1.02;0.20;;;;;;;29.48;19.48;98739.28;5854838;23;20024;-83
2023/03/11 13:50:36;;;;;;;0.68;0.17;;;;;;;21.58;31.62;98676.50;5415976;23;20054;-83
2023/03/11 13:56:56;;;;;;;0.10;0.10;;;;;;;21.57;30.46;98667.63;4984222;23;20051;-84
2023/03/11 13:59:23;;;;;;;0.40;0.22;;;;;;;21.64;30.60;98664.63;4956914;28;20039;-87
2023/03/11 14:02:15;;;;;;;0.38;0.30;;;;;;;21.69;30.20;98683.47;4978641;28;20031;-85
2023/03/11 14:04:48;;;;;;;1.25;0.20;;;;;;;21.48;30.54;98673.88;4951106;28;20054;-89
2023/03/11 14:07:23;;;;;;;0.35;0.20;;;;;;;21.40;31.51;98679.84;4964143;28;20041;-88
2023/03/11 14:09:49;;;;;;;1.90;0.17;;;;;;;21.50;31.32;98679.81;4961049;28;20068;-87
2023/03/11 14:12:17;;;;;;;5.85;0.20;;;;;;;21.54;30.59;98680.88;4980530;28;20022;-85
2023/03/11 14:15:03;;;;;;;0.20;0.03;;;;;;;21.65;31.01;98675.13;4953159;28;20119;-88
2023/03/11 14:17:32;;;;;;;6.20;0.52;;;;;;;21.82;30.69;98676.63;4997566;23;20468;-86
2023/03/11 14:20:20;;;;;;;0.22;0.15;;;;;;;21.91;30.95;98674.97;4999214;28;20030;-89
2023/03/11 14:22:50;;;;;;;0.10;0.10;;;;;;;21.71;30.76;98675.88;5002195;28;21241;-86
2023/03/11 14:25:30;;;;;;;0.25;0.20;;;;;;;21.70;31.12;98677.00;4984013;28;20037;-90
2023/03/11 14:27:59;;;;;;;0.90;0.10;;;;;;;21.62;31.34;98677.56;5004475;28;20101;-87
2023/03/11 14:30:31;;;;;;;1.38;0.38;;;;;;;21.60;31.20;98687.84;5004004;28;20042;-90
2023/03/11 14:33:21;;;;;;;0.52;0.20;;;;;;;21.48;30.59;98676.56;5002733;28;20041;-82
2023/03/11 14:35:57;;;;;;;0.20;0.20;;;;;;;21.47;30.42;98683.06;4984078;28;20044;-92
2023/03/11 14:38:25;;;;;;;2.17;0.20;;;;;;;21.58;30.93;98693.50;4982139;28;20065;-91
2023/03/11 14:41:18;;;;;;;0.45;0.20;;;;;;;21.52;31.08;98689.22;5003428;28;20041;-92
2023/03/11 14:43:49;;;;;;;0.52;0.30;;;;;;;21.63;30.94;98700.75;4982684;28;20448;-86
2023/03/11 14:47:27;;;;;;;1.75;0.30;;;;;;;21.44;30.71;98718.66;5002730;28;20101;-86
2023/03/11 14:50:42;;;;;;;0.85;0.30;;;;;;;21.42;31.36;98704.63;4954891;28;20114;-84
2023/03/11 14:54:04;;;;;;;0.90;0.30;;;;;;;21.58;31.24;98708.84;5011234;28;20055;-84
2023/03/11 14:57:14;;;;;;;0.68;0.30;;;;;;;21.63;31.30;98711.53;4967256;28;20058;-84
2023/03/11 15:00:17;;;;;;;0.40;0.30;;;;;;;21.64;31.28;98699.69;4991513;28;20126;-84
2023/03/11 15:03:11;;;;;;;1.02;0.30;;;;;;;21.35;31.67;98698.72;5061101;23;20086;-81
2023/03/11 15:06:24;;;;;;;0.30;0.10;;;;;;;21.51;32.05;98697.59;4855897;26;20040;-82
2023/03/11 15:09:32;;;;;;;0.22;0.20;;;;;;;21.35;32.06;98693.34;4941742;29;20059;-80
2023/03/11 15:12:05;;;;;;;1.77;0.30;;;;;;;21.48;31.75;98706.22;4943603;29;20047;-81
2023/03/11 15:15:00;;;;;;;2.72;0.20;;;;;;;21.34;31.99;98697.94;4924877;28;20103;-81
2023/03/11 15:17:59;;;;;;;1.77;0.30;;;;;;;21.25;32.08;98709.53;4946456;29;20036;-81
2023/03/11 15:20:43;;;;;;;0.38;0.30;;;;;;;21.17;32.63;98710.94;4949857;28;20036;-80
2023/03/11 15:24:01;;;;;;;0.43;0.20;;;;;;;21.29;32.91;98710.63;4962684;23;20058;-86
2023/03/11 15:26:54;;;;;;;0.68;0.10;;;;;;;21.34;32.67;98706.03;4939357;29;20043;-86
2023/03/11 15:29:29;;;;;;;0.10;0.10;;;;;;;21.33;32.90;98711.69;4954729;29;20042;-88
2023/03/11 15:31:56;;;;;;;1.92;0.50;;;;;;;21.37;33.15;98713.56;4947972;29;20139;-83
2023/03/11 15:34:42;;;;;;;0.40;0.20;;;;;;;21.54;33.37;98716.69;4939257;29;20081;-86
2023/03/11 15:37:23;;;;;;;1.48;0.20;;;;;;;21.55;33.72;98714.81;4957276;29;20368;-83
2023/03/11 15:39:51;;;;;;;0.40;0.30;;;;;;;21.48;34.01;98714.28;4941005;29;20055;-87
2023/03/11 15:42:19;;;;;;;7.32;0.30;;;;;;;21.44;33.79;98707.88;4927489;29;20041;-91
2023/03/11 15:45:08;;;;;;;3.13;0.20;;;;;;;21.30;34.08;98702.28;4967409;29;20015;-84
2023/03/11 15:47:35;;;;;;;1.88;0.20;;;;;;;21.29;34.31;98710.63;4965829;29;20074;-90
2023/03/11 15:50:18;;;;;;;0.65;0.20;;;;;;;21.26;34.58;98719.25;4963261;29;20027;-91
2023/03/11 15:52:45;;;;;;;1.77;0.20;;;;;;;21.20;34.55;98709.56;4944916;29;20455;-88
2023/03/11 15:55:11;;;;;;;1.95;0.13;;;;;;;21.25;34.46;98714.94;4958041;29;20155;-88
2023/03/11 15:57:38;;;;;;;0.38;0.10;;;;;;;21.11;34.65;98720.91;4957410;29;20122;-88
2023/03/11 16:00:14;;;;;;;0.60;0.20;;;;;;;21.03;35.29;98724.16;4957971;29;20163;-87
2023/03/11 16:02:39;;;;;;;1.20;0.30;;;;;;;21.08;34.83;98729.50;4959238;29;20118;-86
2023/03/11 16:05:12;;;;;;;1.70;0.30;;;;;;;21.04;35.22;98728.47;4941443;29;20466;-88
2023/03/11 16:07:46;;;;;;;0.28;0.20;;;;;;;21.00;35.55;98740.03;4961405;29;20031;-86
2023/03/11 16:10:14;;;;;;;0.35;0.20;;;;;;;21.05;35.77;98735.44;4942596;29;20062;-86
2023/03/11 16:12:41;;;;;;;0.32;0.28;;;;;;;21.16;35.92;98738.13;4957754;29;20483;-88
2023/03/11 16:15:31;;;;;;;0.73;0.47;;;;;;;20.91;36.35;98737.09;4956778;29;20062;-84
2023/03/11 16:17:59;;;;;;;0.32;0.30;;;;;;;20.83;36.42;98737.66;4962544;29;20050;-85
2023/03/11 16:20:55;;;;;;;0.45;0.30;;;;;;;20.79;36.61;98741.16;4956601;29;20049;-86
2023/03/11 16:23:30;;;;;;;0.20;0.20;;;;;;;20.73;36.66;98740.34;4954334;29;20066;-87
2023/03/11 16:26:01;;;;;;;0.60;0.20;;;;;;;20.64;36.56;98747.38;4941035;29;20125;-89
2023/03/11 16:28:34;;;;;;;1.73;0.60;;;;;;;20.63;37.05;98743.06;4961935;29;20114;-90
2023/03/11 16:31:00;;;;;;;1.17;0.22;;;;;;;20.57;37.15;98744.97;4963309;29;20043;-88
2023/03/11 16:33:32;;;;;;;0.57;0.20;;;;;;;20.52;37.29;98752.19;4960870;29;20086;-90
2023/03/11 16:35:59;;;;;;;1.45;0.20;;;;;;;20.43;37.63;98761.91;4944747;29;20069;-90
2023/03/11 16:38:29;;;;;;;1.85;0.30;;;;;;;20.39;37.84;98766.19;4927107;29;20035;-88
2023/03/11 16:41:00;;;;;;;0.73;0.30;;;;;;;20.30;38.11;98762.44;4958947;29;20050;-88
2023/03/11 16:43:28;;;;;;;0.38;0.20;;;;;;;20.20;38.56;98768.56;4966963;29;20055;-91
2023/03/11 16:45:55;;;;;;;0.65;0.30;;;;;;;20.17;38.63;98766.44;4954476;29;20039;-91
2023/03/11 16:48:21;;;;;;;6.45;0.63;;;;;;;20.19;38.78;98771.53;4938196;29;20039;-89